Time;durP1;ratioP1;P1;durP2;ratioP2;P2;SDS_P1;SDS_P2;PMS_P1;PMS_P2;Temp;Humidity;BMP_temperature;BMP_pressure;BME280_temperature;BME280_humidity;BME280_pressure;Samples;Min_cycle;Max_cycle;Signal;HPM_P1;HPM_P2
2022/02/26 00:00:19;;;;;;;13.38;2.80;;;;;;;;;;5089936;28;20032;-52
2022/02/26 00:02:45;;;;;;;16.25;3.22;;;;;;;;;;5085329;28;20461;-48
2022/02/26 00:05:11;;;;;;;14.40;2.45;;;;;;;;;;5092140;28;20034;-49
2022/02/26 00:07:37;;;;;;;16.75;3.20;;;;;;;;;;5091060;28;20024;-49
2022/02/26 00:10:04;;;;;;;15.23;2.85;;;;;;;;;;5092334;28;20028;-50
2022/02/26 00:12:30;;;;;;;11.77;2.85;;;;;;;;;;5091589;28;20101;-48
2022/02/26 00:14:56;;;;;;;12.77;1.85;;;;;;;;;;5080619;28;20551;-49
2022/02/26 00:17:22;;;;;;;9.25;2.13;;;;;;;;;;5083723;28;20095;-50
2022/02/26 00:19:48;;;;;;;16.98;2.80;;;;;;;;;;5091395;28;20135;-48
2022/02/26 00:22:14;;;;;;;20.50;2.80;;;;;;;;;;5091335;28;20054;-49
2022/02/26 00:24:39;;;;;;;20.13;2.35;;;;;;;;;;5091892;28;20070;-50
2022/02/26 00:27:05;;;;;;;12.95;2.15;;;;;;;;;;5085619;28;20048;-48
2022/02/26 00:29:34;;;;;;;15.40;2.85;;;;;;;;;;5084860;28;20093;-48
2022/02/26 00:32:00;;;;;;;9.38;2.65;;;;;;;;;;5091408;28;20028;-48
2022/02/26 00:34:26;;;;;;;15.98;2.05;;;;;;;;;;5091876;28;20209;-48
2022/02/26 00:36:53;;;;;;;7.63;2.08;;;;;;;;;;5089070;28;20478;-48
2022/02/26 00:39:19;;;;;;;15.50;2.85;;;;;;;;;;5079755;28;20052;-49
2022/02/26 00:41:45;;;;;;;13.10;2.80;;;;;;;;;;5071510;28;20067;-48
2022/02/26 00:44:11;;;;;;;17.45;2.85;;;;;;;;;;5082884;28;20528;-48
2022/02/26 00:46:37;;;;;;;11.57;2.35;;;;;;;;;;5085528;28;20112;-49
2022/02/26 00:51:49;;;;;;;11.73;2.58;;;;;;;;;;5091109;28;20791;-50
2022/02/26 00:54:15;;;;;;;7.68;1.73;;;;;;;;;;5091334;28;20032;-50
2022/02/26 00:56:42;;;;;;;12.48;2.10;;;;;;;;;;5087158;28;20438;-49
2022/02/26 00:59:08;;;;;;;16.70;3.03;;;;;;;;;;5083022;28;20028;-50
2022/02/26 01:01:35;;;;;;;9.18;2.00;;;;;;;;;;5084065;28;20051;-48
2022/02/26 01:04:01;;;;;;;13.45;2.33;;;;;;;;;;5095450;28;20020;-48
2022/02/26 01:06:27;;;;;;;12.20;2.40;;;;;;;;;;5093105;28;20025;-50
2022/02/26 01:08:53;;;;;;;23.25;3.42;;;;;;;;;;5093868;28;20047;-49
2022/02/26 01:11:19;;;;;;;12.82;2.28;;;;;;;;;;5079971;28;20143;-48
2022/02/26 01:13:45;;;;;;;17.33;3.50;;;;;;;;;;5093581;28;20430;-49
2022/02/26 01:16:11;;;;;;;21.90;2.67;;;;;;;;;;5094915;28;20055;-50
2022/02/26 01:18:37;;;;;;;13.30;2.17;;;;;;;;;;5095238;28;20028;-48
2022/02/26 01:21:03;;;;;;;16.90;2.78;;;;;;;;;;5088535;28;20028;-49
2022/02/26 01:23:29;;;;;;;19.95;2.30;;;;;;;;;;5074210;28;20030;-49
2022/02/26 01:25:55;;;;;;;12.35;2.22;;;;;;;;;;5087368;28;20031;-48
2022/02/26 01:28:22;;;;;;;21.50;3.15;;;;;;;;;;5094769;28;20108;-49
2022/02/26 01:30:48;;;;;;;15.90;2.10;;;;;;;;;;5093953;28;20704;-48
2022/02/26 01:33:14;;;;;;;16.88;2.40;;;;;;;;;;5085561;28;20076;-49
2022/02/26 01:35:40;;;;;;;15.38;2.40;;;;;;;;;;5084306;28;20078;-48
2022/02/26 01:38:06;;;;;;;18.67;2.72;;;;;;;;;;5094126;28;20055;-48
2022/02/26 01:40:32;;;;;;;13.95;2.50;;;;;;;;;;5085881;28;20030;-48
2022/02/26 01:42:58;;;;;;;18.80;2.35;;;;;;;;;;5093996;28;20372;-48
2022/02/26 01:45:26;;;;;;;15.18;2.30;;;;;;;;;;5094519;28;20380;-49
2022/02/26 01:47:52;;;;;;;11.65;1.90;;;;;;;;;;5092934;28;20058;-48
2022/02/26 01:50:18;;;;;;;29.35;2.67;;;;;;;;;;5091552;28;20028;-52
2022/02/26 01:52:45;;;;;;;15.93;2.33;;;;;;;;;;5093356;28;20051;-49
2022/02/26 01:55:11;;;;;;;22.55;3.63;;;;;;;;;;5090056;28;20032;-51
2022/02/26 01:57:37;;;;;;;19.58;2.95;;;;;;;;;;5094153;28;20028;-48
2022/02/26 02:00:04;;;;;;;12.75;2.75;;;;;;;;;;5094213;28;20016;-48
2022/02/26 02:02:30;;;;;;;17.80;2.35;;;;;;;;;;5089512;28;20468;-48
2022/02/26 02:04:56;;;;;;;12.90;2.15;;;;;;;;;;5080151;28;20103;-50
2022/02/26 02:07:22;;;;;;;21.23;2.47;;;;;;;;;;5091616;28;20433;-49
2022/02/26 02:09:49;;;;;;;18.40;2.33;;;;;;;;;;5080281;28;20038;-49
2022/02/26 02:12:15;;;;;;;19.23;2.10;;;;;;;;;;5080355;28;20541;-48
2022/02/26 02:14:44;;;;;;;12.27;2.13;;;;;;;;;;5092592;28;20028;-49
2022/02/26 02:17:10;;;;;;;18.40;2.33;;;;;;;;;;5082656;28;20397;-48
2022/02/26 02:19:36;;;;;;;10.70;3.30;;;;;;;;;;5078235;28;20032;-50
2022/02/26 02:22:03;;;;;;;27.00;2.92;;;;;;;;;;5084314;28;20376;-50
2022/02/26 02:24:29;;;;;;;9.93;2.50;;;;;;;;;;5093251;28;20383;-49
2022/02/26 02:26:55;;;;;;;14.88;3.17;;;;;;;;;;5091799;28;20032;-49
2022/02/26 02:29:21;;;;;;;13.18;2.58;;;;;;;;;;5093530;28;20035;-51
2022/02/26 02:31:47;;;;;;;16.65;3.40;;;;;;;;;;5081881;28;20024;-50
2022/02/26 02:34:13;;;;;;;19.63;3.40;;;;;;;;;;5076465;28;20031;-50
2022/02/26 02:36:46;;;;;;;10.07;2.80;;;;;;;;;;5075623;28;20032;-49
2022/02/26 02:39:12;;;;;;;16.88;2.35;;;;;;;;;;5074732;28;20412;-51
2022/02/26 02:41:39;;;;;;;20.13;2.90;;;;;;;;;;5075166;28;20020;-48
2022/02/26 02:44:06;;;;;;;13.68;2.70;;;;;;;;;;5071309;28;20508;-49
2022/02/26 02:46:32;;;;;;;14.15;2.85;;;;;;;;;;5082643;28;20031;-50
2022/02/26 02:48:58;;;;;;;19.40;3.25;;;;;;;;;;5092993;28;20494;-49
2022/02/26 02:51:24;;;;;;;14.63;3.13;;;;;;;;;;5082844;28;20037;-48
2022/02/26 02:53:50;;;;;;;8.77;2.00;;;;;;;;;;5087464;28;20044;-48
2022/02/26 02:56:16;;;;;;;13.15;2.47;;;;;;;;;;5087023;28;20089;-48
2022/02/26 02:58:42;;;;;;;15.68;2.92;;;;;;;;;;5093067;28;20368;-49
2022/02/26 03:01:08;;;;;;;17.02;2.05;;;;;;;;;;5092337;28;20031;-48
2022/02/26 03:03:34;;;;;;;12.55;2.55;;;;;;;;;;5092574;28;20036;-48
2022/02/26 03:06:00;;;;;;;17.95;4.47;;;;;;;;;;5081278;28;20024;-48
2022/02/26 03:08:26;;;;;;;16.67;2.30;;;;;;;;;;5086804;28;20031;-48
2022/02/26 03:10:53;;;;;;;12.20;3.08;;;;;;;;;;5074508;28;20024;-53
2022/02/26 03:13:20;;;;;;;19.27;4.30;;;;;;;;;;5084969;28;20373;-49
2022/02/26 03:15:46;;;;;;;15.48;2.60;;;;;;;;;;5083028;28;20024;-49
2022/02/26 03:18:12;;;;;;;14.30;2.53;;;;;;;;;;5084246;28;20107;-50
2022/02/26 03:20:38;;;;;;;15.73;2.85;;;;;;;;;;5082355;28;20388;-49
2022/02/26 03:23:04;;;;;;;22.13;3.38;;;;;;;;;;5091703;28;20031;-49
2022/02/26 03:25:30;;;;;;;16.20;3.28;;;;;;;;;;5086039;28;20033;-48
2022/02/26 03:27:56;;;;;;;12.93;2.58;;;;;;;;;;5078630;28;20047;-52
2022/02/26 03:30:22;;;;;;;13.27;2.42;;;;;;;;;;5086236;28;20017;-49
2022/02/26 03:32:48;;;;;;;10.35;2.70;;;;;;;;;;5085478;28;20103;-49
2022/02/26 03:35:14;;;;;;;19.85;3.40;;;;;;;;;;5076553;28;20817;-49
2022/02/26 03:37:40;;;;;;;13.85;3.33;;;;;;;;;;5090063;28;20031;-48
2022/02/26 03:40:08;;;;;;;17.25;2.83;;;;;;;;;;5074796;28;20032;-49
2022/02/26 03:42:34;;;;;;;18.05;2.92;;;;;;;;;;5078857;28;20453;-50
2022/02/26 03:45:00;;;;;;;15.65;3.03;;;;;;;;;;5089163;28;20032;-49
2022/02/26 03:47:26;;;;;;;12.13;2.53;;;;;;;;;;5079228;28;20040;-49
2022/02/26 03:49:52;;;;;;;21.05;2.50;;;;;;;;;;5077054;28;20028;-50
2022/02/26 03:52:20;;;;;;;14.73;3.92;;;;;;;;;;5071451;28;20067;-48
2022/02/26 03:54:46;;;;;;;15.38;2.10;;;;;;;;;;5075353;28;20067;-48
2022/02/26 03:57:12;;;;;;;15.80;2.17;;;;;;;;;;5084265;28;20026;-48
2022/02/26 03:59:38;;;;;;;19.77;2.78;;;;;;;;;;5076288;28;20020;-49
2022/02/26 04:02:04;;;;;;;12.48;2.08;;;;;;;;;;5083810;28;20103;-49
2022/02/26 04:04:30;;;;;;;9.88;2.40;;;;;;;;;;5085559;28;20036;-48
2022/02/26 04:06:56;;;;;;;12.57;3.17;;;;;;;;;;5085851;28;20035;-49
2022/02/26 04:09:23;;;;;;;17.50;3.65;;;;;;;;;;5082788;28;20411;-48
2022/02/26 04:11:49;;;;;;;23.15;3.17;;;;;;;;;;5071862;28;20107;-48
2022/02/26 04:14:15;;;;;;;15.68;2.80;;;;;;;;;;5076851;28;20025;-48
2022/02/26 04:16:41;;;;;;;10.35;2.22;;;;;;;;;;5073669;28;20103;-49
2022/02/26 04:19:07;;;;;;;12.43;2.42;;;;;;;;;;5084761;28;20383;-48
2022/02/26 04:21:34;;;;;;;17.00;2.13;;;;;;;;;;5091402;28;20032;-48
2022/02/26 04:24:00;;;;;;;20.95;2.55;;;;;;;;;;5083997;28;20444;-49
2022/02/26 04:26:26;;;;;;;25.33;3.85;;;;;;;;;;5087595;28;20162;-49
2022/02/26 04:28:53;;;;;;;13.32;2.85;;;;;;;;;;5080533;28;20024;-48
2022/02/26 04:31:19;;;;;;;23.45;2.30;;;;;;;;;;5086063;28;20103;-48
2022/02/26 04:33:45;;;;;;;15.15;3.13;;;;;;;;;;5087374;28;20355;-48
2022/02/26 04:36:13;;;;;;;15.98;2.22;;;;;;;;;;5091586;28;20464;-48
2022/02/26 04:38:39;;;;;;;11.93;2.40;;;;;;;;;;5084944;28;20392;-48
2022/02/26 04:41:05;;;;;;;13.60;2.85;;;;;;;;;;5084757;28;20115;-49
2022/02/26 04:43:32;;;;;;;10.80;2.10;;;;;;;;;;5084020;28;20028;-49
2022/02/26 04:45:58;;;;;;;19.45;2.75;;;;;;;;;;5086222;28;20096;-49
2022/02/26 04:48:24;;;;;;;18.42;2.55;;;;;;;;;;5082136;28;20123;-48
2022/02/26 04:50:50;;;;;;;14.15;2.22;;;;;;;;;;5087976;28;20037;-50
2022/02/26 04:53:16;;;;;;;17.67;2.88;;;;;;;;;;5084535;28;20069;-50
2022/02/26 04:55:42;;;;;;;17.05;3.30;;;;;;;;;;5083500;28;20016;-48
2022/02/26 04:58:09;;;;;;;16.17;3.10;;;;;;;;;;5085215;28;20032;-49
2022/02/26 05:00:35;;;;;;;14.77;2.55;;;;;;;;;;5085631;28;20494;-49
2022/02/26 05:03:01;;;;;;;9.23;2.28;;;;;;;;;;5084456;28;20141;-48
2022/02/26 05:05:27;;;;;;;12.48;2.50;;;;;;;;;;5086078;28;20509;-49
2022/02/26 05:07:53;;;;;;;10.23;2.13;;;;;;;;;;5092881;28;20115;-48
2022/02/26 05:10:19;;;;;;;13.95;3.33;;;;;;;;;;5088394;28;20082;-49
2022/02/26 05:12:45;;;;;;;20.00;3.13;;;;;;;;;;5092990;28;20034;-51
2022/02/26 05:15:11;;;;;;;18.67;3.72;;;;;;;;;;5087746;28;20032;-49
2022/02/26 05:17:38;;;;;;;12.40;2.58;;;;;;;;;;5089858;28;20356;-49
2022/02/26 05:20:05;;;;;;;11.85;2.75;;;;;;;;;;5080620;28;20048;-49
2022/02/26 05:22:31;;;;;;;11.73;2.22;;;;;;;;;;5090114;28;20021;-50
2022/02/26 05:24:57;;;;;;;9.35;2.92;;;;;;;;;;5089686;28;20119;-50
2022/02/26 05:27:22;;;;;;;14.75;2.95;;;;;;;;;;5084814;28;20032;-48
2022/02/26 05:29:48;;;;;;;13.18;1.65;;;;;;;;;;5078645;28;20118;-49
2022/02/26 05:32:14;;;;;;;11.45;1.98;;;;;;;;;;5079066;28;20424;-48
2022/02/26 05:34:41;;;;;;;24.38;3.75;;;;;;;;;;5083723;28;20104;-48
2022/02/26 05:37:07;;;;;;;9.13;2.38;;;;;;;;;;5080976;28;20073;-50
2022/02/26 05:39:33;;;;;;;12.60;2.00;;;;;;;;;;5079321;28;20441;-48
2022/02/26 05:41:59;;;;;;;12.85;2.78;;;;;;;;;;5087630;28;20408;-48
2022/02/26 05:44:25;;;;;;;17.98;2.85;;;;;;;;;;5090751;28;20027;-48
2022/02/26 05:46:52;;;;;;;9.02;2.22;;;;;;;;;;5086291;28;20024;-49
2022/02/26 05:49:19;;;;;;;8.50;1.85;;;;;;;;;;5077831;28;20028;-48
2022/02/26 05:51:45;;;;;;;8.95;2.40;;;;;;;;;;5084262;28;20090;-49
2022/02/26 05:54:11;;;;;;;16.05;2.10;;;;;;;;;;5088708;28;20100;-49
2022/02/26 05:56:37;;;;;;;11.75;2.60;;;;;;;;;;5084581;28;20016;-51
2022/02/26 05:59:03;;;;;;;13.27;2.63;;;;;;;;;;5085185;28;20039;-48
2022/02/26 06:01:29;;;;;;;7.72;1.75;;;;;;;;;;5082483;28;20077;-49
2022/02/26 06:03:55;;;;;;;15.10;3.45;;;;;;;;;;5086079;28;20031;-48
2022/02/26 06:06:21;;;;;;;19.17;2.25;;;;;;;;;;5082799;28;20036;-48
2022/02/26 06:08:47;;;;;;;9.77;2.40;;;;;;;;;;5077632;28;20062;-50
2022/02/26 06:11:13;;;;;;;13.20;2.17;;;;;;;;;;5084785;28;20033;-50
2022/02/26 06:13:39;;;;;;;10.82;1.90;;;;;;;;;;5082450;28;20031;-49
2022/02/26 06:16:05;;;;;;;11.50;1.95;;;;;;;;;;5085006;28;20034;-48
2022/02/26 06:18:31;;;;;;;16.77;2.25;;;;;;;;;;5079881;28;20455;-49
2022/02/26 06:20:57;;;;;;;16.27;2.38;;;;;;;;;;5088077;28;20016;-48
2022/02/26 06:23:23;;;;;;;15.95;2.65;;;;;;;;;;5078504;28;20104;-48
2022/02/26 06:25:49;;;;;;;13.93;2.47;;;;;;;;;;5078079;28;20031;-51
2022/02/26 06:28:15;;;;;;;11.38;2.15;;;;;;;;;;5075531;28;20731;-49
2022/02/26 06:30:41;;;;;;;15.75;2.13;;;;;;;;;;5079871;28;20111;-49
2022/02/26 06:33:12;;;;;;;16.55;2.90;;;;;;;;;;5087090;28;20111;-49
2022/02/26 06:35:38;;;;;;;16.10;2.50;;;;;;;;;;5073629;28;20036;-50
2022/02/26 06:38:04;;;;;;;12.68;2.25;;;;;;;;;;5082332;28;20030;-50
2022/02/26 06:40:30;;;;;;;8.38;1.83;;;;;;;;;;5075803;28;20407;-50
2022/02/26 06:42:56;;;;;;;11.95;2.97;;;;;;;;;;5089819;28;20028;-50
2022/02/26 06:45:22;;;;;;;15.55;2.65;;;;;;;;;;5076857;28;20033;-51
2022/02/26 06:47:48;;;;;;;19.92;2.83;;;;;;;;;;5078264;28;20024;-50
2022/02/26 06:50:14;;;;;;;12.75;2.53;;;;;;;;;;5072811;28;20378;-51
2022/02/26 06:52:40;;;;;;;19.98;2.75;;;;;;;;;;5081406;28;20071;-54
2022/02/26 06:55:06;;;;;;;19.73;2.78;;;;;;;;;;5074909;28;20107;-53
2022/02/26 06:57:32;;;;;;;18.40;2.38;;;;;;;;;;5085605;28;20016;-53
2022/02/26 06:59:58;;;;;;;12.52;2.00;;;;;;;;;;5078590;28;20464;-53
2022/02/26 07:02:24;;;;;;;7.68;2.45;;;;;;;;;;5081038;28;20051;-49
2022/02/26 07:04:50;;;;;;;8.15;1.60;;;;;;;;;;5075183;28;20025;-49
2022/02/26 07:07:16;;;;;;;12.00;2.13;;;;;;;;;;5084794;28;20142;-49
2022/02/26 07:09:42;;;;;;;11.10;2.85;;;;;;;;;;5074723;28;20037;-49
2022/02/26 07:12:09;;;;;;;11.52;2.00;;;;;;;;;;5077444;28;20047;-50
2022/02/26 07:14:35;;;;;;;10.25;2.13;;;;;;;;;;5084080;28;20021;-48
2022/02/26 07:17:01;;;;;;;4.53;2.35;;;;;;;;;;5087142;28;20024;-48
2022/02/26 07:19:27;;;;;;;16.55;2.63;;;;;;;;;;5084550;28;20040;-48
2022/02/26 07:21:57;;;;;;;11.20;2.35;;;;;;;;;;5086080;28;20135;-49
2022/02/26 07:24:23;;;;;;;11.80;2.25;;;;;;;;;;5081544;28;20154;-53
2022/02/26 07:26:49;;;;;;;11.90;1.80;;;;;;;;;;5077042;28;20043;-54
2022/02/26 07:29:15;;;;;;;14.30;2.15;;;;;;;;;;5085290;28;20029;-51
2022/02/26 07:31:41;;;;;;;16.25;1.77;;;;;;;;;;5073095;28;20028;-54
2022/02/26 07:34:07;;;;;;;12.70;2.15;;;;;;;;;;5071989;28;20020;-53
2022/02/26 07:36:33;;;;;;;14.70;2.60;;;;;;;;;;5085585;28;20379;-49
2022/02/26 07:38:59;;;;;;;10.00;2.58;;;;;;;;;;5080753;28;20624;-49
2022/02/26 07:41:25;;;;;;;12.15;2.22;;;;;;;;;;5081228;28;20028;-49
2022/02/26 07:43:51;;;;;;;14.45;3.00;;;;;;;;;;5089355;28;20031;-49
2022/02/26 07:46:17;;;;;;;9.05;2.20;;;;;;;;;;5088519;28;20452;-50
2022/02/26 07:48:43;;;;;;;8.23;1.88;;;;;;;;;;5074985;28;20029;-51
2022/02/26 07:51:09;;;;;;;12.15;2.88;;;;;;;;;;5088436;28;20617;-48
2022/02/26 07:53:35;;;;;;;9.70;2.03;;;;;;;;;;5078969;28;20032;-48
2022/02/26 07:56:01;;;;;;;14.57;2.55;;;;;;;;;;5089935;28;20024;-50
2022/02/26 07:58:27;;;;;;;18.23;2.35;;;;;;;;;;5087807;28;20058;-50
2022/02/26 08:00:53;;;;;;;13.38;2.45;;;;;;;;;;5083544;28;20018;-53
2022/02/26 08:03:19;;;;;;;12.88;2.28;;;;;;;;;;5087672;28;20111;-51
2022/02/26 08:05:45;;;;;;;14.27;2.17;;;;;;;;;;5084421;28;20103;-51
2022/02/26 08:08:11;;;;;;;7.88;1.70;;;;;;;;;;5082387;28;20032;-53
2022/02/26 08:10:37;;;;;;;17.40;3.20;;;;;;;;;;5092622;28;20095;-49
2022/02/26 08:13:04;;;;;;;13.27;2.60;;;;;;;;;;5076266;28;20575;-53
2022/02/26 08:15:30;;;;;;;12.65;1.95;;;;;;;;;;5084367;28;20031;-49
2022/02/26 08:17:56;;;;;;;10.30;2.10;;;;;;;;;;5092485;28;20055;-48
2022/02/26 08:20:23;;;;;;;11.02;2.08;;;;;;;;;;5084568;28;20039;-48
2022/02/26 08:22:49;;;;;;;11.75;1.73;;;;;;;;;;5085041;28;20063;-48
2022/02/26 08:25:16;;;;;;;14.18;2.15;;;;;;;;;;5094155;28;20430;-49
2022/02/26 08:27:42;;;;;;;7.60;1.83;;;;;;;;;;5091533;28;20032;-50
2022/02/26 08:30:10;;;;;;;8.43;2.13;;;;;;;;;;5095628;28;20028;-49
2022/02/26 08:32:35;;;;;;;7.32;1.92;;;;;;;;;;5085101;28;20391;-50
2022/02/26 08:35:02;;;;;;;10.95;2.08;;;;;;;;;;5083063;28;20028;-51
2022/02/26 08:37:28;;;;;;;12.55;2.60;;;;;;;;;;5083856;28;20019;-54
2022/02/26 08:39:55;;;;;;;5.40;1.85;;;;;;;;;;5086595;28;20496;-53
2022/02/26 08:42:21;;;;;;;8.00;1.90;;;;;;;;;;5082057;28;20495;-54
2022/02/26 08:44:47;;;;;;;11.73;2.63;;;;;;;;;;5084952;28;20425;-48
2022/02/26 08:47:13;;;;;;;11.52;2.20;;;;;;;;;;5095329;28;20127;-49
2022/02/26 08:49:39;;;;;;;9.73;2.17;;;;;;;;;;5083162;28;20095;-48
2022/02/26 08:52:05;;;;;;;14.23;1.70;;;;;;;;;;5081428;28;20480;-48
2022/02/26 08:54:31;;;;;;;16.75;2.08;;;;;;;;;;5092369;28;20099;-49
2022/02/26 08:56:58;;;;;;;13.65;2.10;;;;;;;;;;5092498;28;20081;-50
2022/02/26 08:59:24;;;;;;;14.27;3.38;;;;;;;;;;5093950;28;20032;-49
2022/02/26 09:01:50;;;;;;;9.13;2.22;;;;;;;;;;5088353;28;20129;-50
2022/02/26 09:04:16;;;;;;;15.45;2.95;;;;;;;;;;5080341;28;20032;-48
2022/02/26 09:06:42;;;;;;;12.60;2.75;;;;;;;;;;5083807;28;20095;-51
2022/02/26 09:09:08;;;;;;;12.50;3.10;;;;;;;;;;5086487;28;20033;-52
2022/02/26 09:11:34;;;;;;;12.13;2.65;;;;;;;;;;5083958;28;20036;-55
2022/02/26 09:14:00;;;;;;;12.68;2.42;;;;;;;;;;5077507;28;20127;-53
2022/02/26 09:16:26;;;;;;;14.55;3.28;;;;;;;;;;5075552;28;20119;-50
2022/02/26 09:18:52;;;;;;;12.13;2.85;;;;;;;;;;5090627;28;20016;-54
2022/02/26 09:21:19;;;;;;;7.97;2.08;;;;;;;;;;5084225;28;20112;-52
2022/02/26 09:23:45;;;;;;;9.10;2.38;;;;;;;;;;5078335;28;20024;-50
2022/02/26 09:26:11;;;;;;;15.65;2.65;;;;;;;;;;5087067;28;20566;-49
2022/02/26 09:28:39;;;;;;;17.25;3.05;;;;;;;;;;5088508;28;20028;-50
2022/02/26 09:31:05;;;;;;;10.90;2.10;;;;;;;;;;5085091;28;20162;-52
2022/02/26 09:33:31;;;;;;;10.15;1.60;;;;;;;;;;5080676;28;20033;-48
2022/02/26 09:35:59;;;;;;;14.82;2.30;;;;;;;;;;5082643;28;20155;-48
2022/02/26 09:38:25;;;;;;;7.03;2.40;;;;;;;;;;5074981;28;20028;-49
2022/02/26 09:40:53;;;;;;;11.80;1.95;;;;;;;;;;5083232;28;20024;-49
2022/02/26 09:43:19;;;;;;;11.93;2.40;;;;;;;;;;5089497;28;20039;-49
2022/02/26 09:45:45;;;;;;;13.15;2.25;;;;;;;;;;5079890;28;20035;-52
2022/02/26 09:48:11;;;;;;;14.65;2.80;;;;;;;;;;5076562;28;20508;-52
2022/02/26 09:50:38;;;;;;;11.75;2.20;;;;;;;;;;5080725;28;20038;-54
2022/02/26 09:53:04;;;;;;;13.48;2.45;;;;;;;;;;5075256;28;20044;-53
2022/02/26 09:55:31;;;;;;;12.98;2.60;;;;;;;;;;5075797;28;20051;-54
2022/02/26 09:57:57;;;;;;;9.73;2.08;;;;;;;;;;5088516;28;20028;-50
2022/02/26 10:00:23;;;;;;;7.85;2.17;;;;;;;;;;5088669;28;20027;-49
2022/02/26 10:02:49;;;;;;;7.93;2.38;;;;;;;;;;5087585;28;20020;-49
2022/02/26 10:05:18;;;;;;;12.13;2.40;;;;;;;;;;5089086;28;20029;-49
2022/02/26 10:07:46;;;;;;;5.30;1.95;;;;;;;;;;5082272;28;20127;-50
2022/02/26 10:10:16;;;;;;;4.65;1.75;;;;;;;;;;5091907;28;20677;-50
2022/02/26 10:12:43;;;;;;;5.22;1.88;;;;;;;;;;5089562;28;20067;-51
2022/02/26 10:15:21;;;;;;;12.77;2.45;;;;;;;;;;5093658;28;20093;-50
2022/02/26 10:17:57;;;;;;;12.70;2.22;;;;;;;;;;5092704;28;20032;-48
2022/02/26 10:20:23;;;;;;;9.52;2.35;;;;;;;;;;5087174;28;20035;-49
2022/02/26 10:22:54;;;;;;;9.85;2.30;;;;;;;;;;5082962;28;20024;-49
2022/02/26 10:25:21;;;;;;;9.93;2.38;;;;;;;;;;5093877;28;20036;-49
2022/02/26 10:27:48;;;;;;;7.75;1.90;;;;;;;;;;5093949;28;20028;-53
2022/02/26 10:30:16;;;;;;;6.60;1.60;;;;;;;;;;5089806;28;20036;-55
2022/02/26 10:32:42;;;;;;;3.17;1.10;;;;;;;;;;5091005;28;20044;-51
2022/02/26 10:35:08;;;;;;;3.88;1.10;;;;;;;;;;5081557;28;20021;-54
2022/02/26 10:37:34;;;;;;;7.13;1.15;;;;;;;;;;5086527;28;20031;-51
2022/02/26 10:40:00;;;;;;;5.53;1.30;;;;;;;;;;5087528;28;20032;-52
2022/02/26 10:42:28;;;;;;;9.63;1.60;;;;;;;;;;5093029;28;20057;-49
2022/02/26 10:45:05;;;;;;;4.82;1.55;;;;;;;;;;5090584;28;20106;-51
2022/02/26 10:47:32;;;;;;;3.90;1.00;;;;;;;;;;5086859;28;20085;-50
2022/02/26 10:49:58;;;;;;;3.05;0.82;;;;;;;;;;5078865;28;20056;-49
2022/02/26 10:52:29;;;;;;;7.93;1.10;;;;;;;;;;5086813;28;20131;-49
2022/02/26 10:54:59;;;;;;;2.67;0.88;;;;;;;;;;5083212;28;20605;-49
2022/02/26 10:57:32;;;;;;;6.30;0.90;;;;;;;;;;5081164;28;20496;-52
2022/02/26 10:59:58;;;;;;;3.63;0.88;;;;;;;;;;5083212;28;20407;-50
2022/02/26 11:02:29;;;;;;;3.15;0.82;;;;;;;;;;5092269;28;20372;-51
2022/02/26 11:04:56;;;;;;;5.47;1.13;;;;;;;;;;5089543;28;20136;-50
2022/02/26 11:07:23;;;;;;;4.40;0.93;;;;;;;;;;5091285;28;20028;-51
2022/02/26 11:09:52;;;;;;;5.10;1.05;;;;;;;;;;5093221;28;20032;-50
2022/02/26 11:12:19;;;;;;;6.28;0.90;;;;;;;;;;5092348;28;20031;-51
2022/02/26 11:14:46;;;;;;;3.60;0.90;;;;;;;;;;5092554;28;20081;-53
2022/02/26 11:17:13;;;;;;;4.70;1.30;;;;;;;;;;5089414;28;20036;-53
2022/02/26 11:19:39;;;;;;;5.82;1.05;;;;;;;;;;5072968;28;20032;-52
2022/02/26 11:22:06;;;;;;;4.38;1.25;;;;;;;;;;5079998;28;20099;-52
2022/02/26 11:24:32;;;;;;;1.58;0.80;;;;;;;;;;5084647;28;20017;-54
2022/02/26 11:26:59;;;;;;;4.68;1.20;;;;;;;;;;5088352;28;20376;-53
2022/02/26 11:29:26;;;;;;;6.75;1.20;;;;;;;;;;5079159;28;20355;-50
2022/02/26 11:31:58;;;;;;;3.42;0.98;;;;;;;;;;5089211;28;20058;-51
2022/02/26 11:34:27;;;;;;;6.78;1.40;;;;;;;;;;5073499;28;20021;-49
2022/02/26 11:36:55;;;;;;;5.70;1.10;;;;;;;;;;5092563;28;20707;-49
2022/02/26 11:39:26;;;;;;;11.05;1.60;;;;;;;;;;5079627;28;20033;-51
2022/02/26 11:42:12;;;;;;;2.95;0.90;;;;;;;;;;5089649;28;20058;-50
2022/02/26 11:44:38;;;;;;;5.72;1.20;;;;;;;;;;5090444;28;20038;-49
2022/02/26 11:47:11;;;;;;;7.13;0.98;;;;;;;;;;5079912;28;20476;-49
2022/02/26 11:49:37;;;;;;;6.07;1.35;;;;;;;;;;5080556;28;20032;-49
2022/02/26 11:52:03;;;;;;;2.85;0.73;;;;;;;;;;5091607;28;20097;-53
2022/02/26 11:54:30;;;;;;;9.25;1.48;;;;;;;;;;5092102;28;20044;-52
2022/02/26 11:56:59;;;;;;;5.72;1.00;;;;;;;;;;5079581;28;20423;-49
2022/02/26 11:59:42;;;;;;;3.38;0.70;;;;;;;;;;5084618;28;20038;-53
2022/02/26 12:02:09;;;;;;;2.50;0.90;;;;;;;;;;5088710;28;20115;-50
2022/02/26 12:04:44;;;;;;;4.68;0.90;;;;;;;;;;5089818;28;20099;-55
2022/02/26 12:07:10;;;;;;;3.03;0.70;;;;;;;;;;5080435;28;20028;-53
2022/02/26 12:09:55;;;;;;;7.93;1.20;;;;;;;;;;5088071;28;20031;-52
2022/02/26 12:12:34;;;;;;;4.90;0.70;;;;;;;;;;5091477;28;20103;-55
2022/02/26 12:15:00;;;;;;;3.63;0.75;;;;;;;;;;5085292;28;20447;-54
2022/02/26 12:17:26;;;;;;;1.27;0.77;;;;;;;;;;5087597;28;20048;-53
2022/02/26 12:19:54;;;;;;;6.40;1.10;;;;;;;;;;5080272;28;20024;-53
2022/02/26 12:22:22;;;;;;;9.05;1.02;;;;;;;;;;5083163;28;20034;-54
2022/02/26 12:24:49;;;;;;;4.07;0.57;;;;;;;;;;5091654;28;20024;-52
2022/02/26 12:27:15;;;;;;;5.93;1.02;;;;;;;;;;5090535;28;20020;-55
2022/02/26 12:29:40;;;;;;;7.97;1.33;;;;;;;;;;5074784;28;20154;-51
2022/02/26 12:32:11;;;;;;;4.43;0.98;;;;;;;;;;5087568;28;20044;-49
2022/02/26 12:34:49;;;;;;;2.65;0.55;;;;;;;;;;5078264;28;20098;-49
2022/02/26 12:37:20;;;;;;;4.97;1.13;;;;;;;;;;5091844;28;20016;-49
2022/02/26 12:39:47;;;;;;;3.60;0.98;;;;;;;;;;5089167;28;20133;-49
2022/02/26 12:42:20;;;;;;;5.38;0.80;;;;;;;;;;5074436;28;20056;-52
2022/02/26 12:44:46;;;;;;;8.15;1.23;;;;;;;;;;5083323;28;20056;-50
2022/02/26 12:47:12;;;;;;;3.75;0.80;;;;;;;;;;5084399;28;20032;-52
2022/02/26 12:49:38;;;;;;;5.18;0.85;;;;;;;;;;5080479;28;20069;-49
2022/02/26 12:52:04;;;;;;;5.13;0.98;;;;;;;;;;5089818;28;20051;-49
2022/02/26 12:54:37;;;;;;;4.85;0.98;;;;;;;;;;5088535;28;20025;-50
2022/02/26 12:57:03;;;;;;;4.75;1.08;;;;;;;;;;5081937;28;20052;-54
2022/02/26 12:59:31;;;;;;;3.28;1.05;;;;;;;;;;5092173;28;20119;-55
2022/02/26 13:01:57;;;;;;;5.43;1.20;;;;;;;;;;5092208;28;20419;-52
2022/02/26 13:04:28;;;;;;;7.05;1.02;;;;;;;;;;5091242;28;20020;-53
2022/02/26 13:06:54;;;;;;;3.85;0.80;;;;;;;;;;5083243;28;20381;-50
2022/02/26 13:09:20;;;;;;;3.30;1.10;;;;;;;;;;5085347;28;20024;-53
2022/02/26 13:11:47;;;;;;;4.65;0.75;;;;;;;;;;5094500;28;20415;-53
2022/02/26 13:14:13;;;;;;;4.35;1.13;;;;;;;;;;5081533;28;20029;-49
2022/02/26 13:16:42;;;;;;;3.35;1.05;;;;;;;;;;5080257;28;20108;-52
2022/02/26 13:19:08;;;;;;;4.40;0.93;;;;;;;;;;5082381;28;20463;-50
2022/02/26 13:21:35;;;;;;;5.00;1.25;;;;;;;;;;5085786;28;20028;-49
2022/02/26 13:24:02;;;;;;;2.28;1.13;;;;;;;;;;5090694;28;20024;-50
2022/02/26 13:26:28;;;;;;;4.72;1.20;;;;;;;;;;5084644;28;20034;-50
2022/02/26 13:28:55;;;;;;;3.75;0.85;;;;;;;;;;5092531;28;20523;-52
2022/02/26 13:31:21;;;;;;;2.83;0.82;;;;;;;;;;5086413;28;20032;-50
2022/02/26 13:33:47;;;;;;;3.53;0.85;;;;;;;;;;5094372;28;20032;-53
2022/02/26 13:36:13;;;;;;;6.68;1.58;;;;;;;;;;5085787;28;20042;-50
2022/02/26 13:38:39;;;;;;;1.33;0.70;;;;;;;;;;5083598;28;20050;-54
2022/02/26 13:41:12;;;;;;;2.47;0.98;;;;;;;;;;5084822;28;20484;-51
2022/02/26 13:43:38;;;;;;;1.90;0.93;;;;;;;;;;5080952;28;20383;-50
2022/02/26 13:46:17;;;;;;;3.63;0.98;;;;;;;;;;5077461;28;20035;-52
2022/02/26 13:48:44;;;;;;;4.47;0.70;;;;;;;;;;5080035;28;20059;-51
2022/02/26 13:51:10;;;;;;;2.17;0.73;;;;;;;;;;5079013;28;20695;-55
2022/02/26 13:53:37;;;;;;;3.53;1.00;;;;;;;;;;5087372;28;20036;-50
2022/02/26 13:56:03;;;;;;;4.60;1.10;;;;;;;;;;5091889;28;20460;-51
2022/02/26 13:58:31;;;;;;;4.10;1.05;;;;;;;;;;5086556;28;20047;-51
2022/02/26 14:01:10;;;;;;;3.83;0.63;;;;;;;;;;5080927;28;20462;-49
2022/02/26 14:03:50;;;;;;;3.30;0.98;;;;;;;;;;5086092;28;20028;-49
2022/02/26 14:06:29;;;;;;;5.65;1.08;;;;;;;;;;5082414;28;20032;-51
2022/02/26 14:08:55;;;;;;;3.70;0.95;;;;;;;;;;5079480;28;20123;-50
2022/02/26 14:11:23;;;;;;;3.30;0.77;;;;;;;;;;5083382;28;20030;-50
2022/02/26 14:13:49;;;;;;;4.60;1.10;;;;;;;;;;5093693;28;20040;-50
2022/02/26 14:16:16;;;;;;;3.78;1.00;;;;;;;;;;5079343;28;20126;-50
2022/02/26 14:18:45;;;;;;;6.38;1.23;;;;;;;;;;5089861;28;20027;-49
2022/02/26 14:21:11;;;;;;;6.07;1.15;;;;;;;;;;5080696;28;20028;-50
2022/02/26 14:23:39;;;;;;;5.15;1.00;;;;;;;;;;5087503;28;20024;-54
2022/02/26 14:26:05;;;;;;;4.80;1.40;;;;;;;;;;5075747;28;20024;-54
2022/02/26 14:28:38;;;;;;;2.13;0.90;;;;;;;;;;5079756;28;20069;-51
2022/02/26 14:31:05;;;;;;;2.70;0.80;;;;;;;;;;5092255;28;20028;-53
2022/02/26 14:33:31;;;;;;;3.35;1.00;;;;;;;;;;5091354;28;20035;-51
2022/02/26 14:35:57;;;;;;;3.72;0.93;;;;;;;;;;5075968;28;20039;-50